Terminal Aerodrome Forecast
Issued by NWS

Home | Current Version | Previous Version | Text Only | Print | Product List | Glossary On
Versions: 1 2 3 4 5 6 7 8 9 10 11 12 13 14 15
000
FTUS44 KJAN 282340
TAFHKS
TAF
KHKS 282340Z 2900/2924 08009KT P6SM FEW120
     FM290900 11008KT P6SM BKN025 BKN050
     FM291700 18010G19KT P6SM SCT050=

USA.gov is the U.S. government's official web portal to all federal, state and local government web resources and services.